DW4212 La Cabrera ES current weather conditions

sailwx.info

Wind from 188

Air temperature 19.4° C
Dewpoint 6.5° C

Last reported at 2014-Oct-25 17:49 UTC.
Time now 2014-Oct-25 18:16 UTC

Location: N 40°53' W 003°35'.
View on Google Maps.

See reports from other nearby stations

  
Tides and Currents Weather Stations Pressure Air Temp Water Temp Dewpoint Dewpoint Depression Visibility Wind Speed Wind Dir Waves Ship Positions
date/time (UTC)wind fromknots sea level pressurealtimeterstation pressurevisibilityair tempwater tempwave heightnotes
2014-Oct-25 17:49 188 19.4
2014-Oct-25 17:39 188 20.0
2014-Oct-25 17:19 188 20.6
2014-Oct-25 17:09 188 21.1
2014-Oct-25 16:59 188 21.7
2014-Oct-25 16:49 188 21.7
2014-Oct-25 16:39 188 21.7
2014-Oct-25 16:29 188 21.7
2014-Oct-25 16:19 188 21.7
2014-Oct-25 16:09 188 21.7
2014-Oct-25 15:59 188 21.7
2014-Oct-25 15:49 188 22.2
2014-Oct-25 15:39 188 22.2
2014-Oct-25 15:29 188 22.2
2014-Oct-25 15:19 188 22.2
2014-Oct-25 15:09 188 22.2
2014-Oct-25 14:59 179 22.2
2014-Oct-25 14:49 176 23.3
2014-Oct-25 14:39 171 0 gusting 4 23.3
2014-Oct-25 14:29 198 0 gusting 2 23.3
2014-Oct-25 14:19 196 0 gusting 3 22.8
2014-Oct-25 14:09 184 22.8
2014-Oct-25 13:59 200 22.8
2014-Oct-25 13:50 192 0 gusting 6 23.3
2014-Oct-25 13:39 172 22.2
2014-Oct-25 13:29 190 0 gusting 2 22.8
2014-Oct-25 13:19 202 22.8
2014-Oct-25 13:09 196 0 gusting 4 22.8
2014-Oct-25 12:59 180 22.8
2014-Oct-25 12:49 183 0 gusting 4 22.8
2014-Oct-25 12:39 180 0 gusting 4 22.2
2014-Oct-25 12:29 179 22.8
2014-Oct-25 12:19 180 22.2
2014-Oct-25 12:09 180 1 gusting 4 22.2
2014-Oct-25 11:49 078 21.7
2014-Oct-25 11:39 074 21.1
2014-Oct-25 11:29 073 21.1
2014-Oct-25 11:19 073 21.1
2014-Oct-25 11:09 072 0 gusting 4 21.1
2014-Oct-25 10:59 065 0 gusting 4 20.6
2014-Oct-25 10:49 069 1 gusting 5 20.6
2014-Oct-25 10:39 067 20.6
2014-Oct-25 10:29 068 20.0
2014-Oct-25 10:19 071 20.0
2014-Oct-25 10:09 015 1 gusting 4 20.6
2014-Oct-25 09:59 063 20.0
2014-Oct-25 09:49 061 19.4
2014-Oct-25 09:39 061 19.4
2014-Oct-25 09:19 009 1 gusting 4 18.9
2014-Oct-25 09:09 011 2 gusting 4 18.3
2014-Oct-25 08:59 355 2 gusting 6 17.8
2014-Oct-25 08:49 011 3 gusting 6 17.2
2014-Oct-25 08:39 360 4 gusting 6 16.7
2014-Oct-25 08:29 009 2 gusting 6 16.1
2014-Oct-25 08:19 005 2 gusting 5 15.6
2014-Oct-25 08:09 355 15.0
2014-Oct-25 07:59 355 14.4
2014-Oct-25 07:49 355 13.9
2014-Oct-25 07:39 355 13.3
2014-Oct-25 07:29 355 12.2
2014-Oct-25 07:19 355 12.2
2014-Oct-25 06:59 355 11.1
2014-Oct-25 06:39 355 11.1
2014-Oct-25 06:29 355 11.7
2014-Oct-25 06:19 355 11.7
2014-Oct-25 06:09 355 11.7
2014-Oct-25 05:59 355 11.7
2014-Oct-25 05:49 355 12.2
2014-Oct-25 05:39 355 12.2
2014-Oct-25 05:29 355 12.2
2014-Oct-25 05:19 355 12.8
2014-Oct-25 05:09 355 12.8
2014-Oct-25 04:59 355 12.8
2014-Oct-25 04:49 355 12.8
2014-Oct-25 04:39 355 12.2
2014-Oct-25 04:29 355 12.2
2014-Oct-25 04:19 355 11.7
2014-Oct-25 04:09 355 11.7
2014-Oct-25 03:59 355 11.7
2014-Oct-25 03:49 355 12.2
2014-Oct-25 03:39 355 12.2
2014-Oct-25 03:29 355 11.7
2014-Oct-25 03:19 355 11.7
2014-Oct-25 03:09 355 12.2
2014-Oct-25 02:59 355 12.2
2014-Oct-25 02:49 355 12.2
2014-Oct-25 02:39 355 12.2
2014-Oct-25 02:29 355 12.8
2014-Oct-25 02:19 355 12.8
2014-Oct-25 02:09 355 13.3
2014-Oct-25 01:59 355 13.3
2014-Oct-25 01:49 355 13.3
2014-Oct-25 01:39 355 13.3
2014-Oct-25 01:29 355 13.3
2014-Oct-25 01:19 355 13.3
2014-Oct-25 01:09 355 13.3
2014-Oct-25 00:59 355 13.3
2014-Oct-25 00:49 355 13.3
2014-Oct-25 00:39 355 13.3
2014-Oct-25 00:29 355 13.9
2014-Oct-25 00:19 355 13.9
2014-Oct-25 00:09 355 14.4
2014-Oct-24 23:59 355 14.4
2014-Oct-24 23:49 355 15.0
2014-Oct-24 23:39 355 15.0
2014-Oct-24 23:29 355 15.6
2014-Oct-24 23:19 355 16.1
2014-Oct-24 23:09 355 0 gusting 2 16.1
2014-Oct-24 22:59 355 16.7
2014-Oct-24 22:49 355 16.7
2014-Oct-24 22:39 355 1 gusting 2 17.2
2014-Oct-24 22:29 355 0 gusting 2 17.2
2014-Oct-24 22:19 355 0 gusting 2 17.8
2014-Oct-24 22:09 355 0 gusting 3 17.8
2014-Oct-24 21:59 355 17.8
2014-Oct-24 21:49 355 17.8
2014-Oct-24 21:39 349 0 gusting 3 17.8
2014-Oct-24 21:29 342 1 gusting 6 18.3
2014-Oct-24 21:19 360 0 gusting 5 18.3
2014-Oct-24 21:09 360 1 gusting 6 18.3
2014-Oct-24 20:59 019 1 gusting 4 18.3
2014-Oct-24 20:49 355 1 gusting 5 18.3
2014-Oct-24 20:39 360 0 gusting 4 18.3
2014-Oct-24 20:29 005 0 gusting 6 18.3
2014-Oct-24 20:19 355 1 gusting 3 18.3
2014-Oct-24 20:09 355 2 gusting 6 17.8
2014-Oct-24 19:59 355 1 gusting 4 17.8
2014-Oct-24 19:49 011 1 gusting 5 17.8
2014-Oct-24 19:39 350 0 gusting 5 17.8
2014-Oct-24 19:29 355 0 gusting 4 17.8
2014-Oct-24 19:19 360 0 gusting 5 17.8
2014-Oct-24 19:09 355 0 gusting 6 17.8
2014-Oct-24 18:59 355 1 gusting 6 17.8
2014-Oct-24 18:49 005 0 gusting 4 17.8
2014-Oct-24 18:39 009 1 gusting 4 18.3
2014-Oct-24 18:29 344 0 gusting 4 18.3
2014-Oct-24 18:19 344 0 gusting 4 18.3
2014-Oct-24 18:09 322 1 gusting 4 18.3
2014-Oct-24 17:59 005 0 gusting 3 18.9
2014-Oct-24 17:49 005 0 gusting 3 18.9
2014-Oct-24 17:39 360 0 gusting 3 18.9
2014-Oct-24 17:29 333 19.4
2014-Oct-24 17:19 335 19.4
2014-Oct-24 17:09 335 20.0
2014-Oct-24 16:59 355 20.6
2014-Oct-24 16:49 313 2 gusting 6 20.6
2014-Oct-24 16:39 351 1 gusting 5 21.1
2014-Oct-24 16:29 355 0 gusting 4 21.1
2014-Oct-24 16:19 017 2 gusting 6 21.7
2014-Oct-24 16:09 005 4 gusting 8 21.7
2014-Oct-24 15:59 005 3 gusting 7 22.2
2014-Oct-24 15:49 349 3 gusting 12 22.8
2014-Oct-24 15:39 326 3 gusting 8 22.8
2014-Oct-24 15:29 318 1 gusting 6 22.8
2014-Oct-24 15:19 005 1 gusting 6 22.8
2014-Oct-24 15:09 341 3 gusting 7 23.3
2014-Oct-24 14:59 327 2 gusting 6 23.3
2014-Oct-24 14:49 360 1 gusting 7 23.9
2014-Oct-24 14:19 009 1 gusting 6 23.9
2014-Oct-24 14:09 331 2 gusting 7 23.3
2014-Oct-24 13:59 010 2 gusting 9 23.3
2014-Oct-24 13:49 016 3 gusting 8 23.9
2014-Oct-24 13:39 355 3 gusting 7 23.9
2014-Oct-24 13:29 012 3 gusting 7 23.9
2014-Oct-24 13:19 018 1 gusting 8 23.9
2014-Oct-24 13:09 351 1 gusting 6 23.9
2014-Oct-24 12:59 033 3 gusting 8 23.9
2014-Oct-24 12:49 062 2 gusting 8 23.3
2014-Oct-24 12:39 062 3 gusting 8 23.3
2014-Oct-24 12:29 076 3 gusting 7 23.9
2014-Oct-24 12:19 010 1 gusting 8 23.9
2014-Oct-24 12:09 086 1 gusting 6 23.3
2014-Oct-24 11:59 070 2 gusting 8 23.3
2014-Oct-24 11:49 039 1 gusting 6 23.3
2014-Oct-24 11:39 077 23.3
2014-Oct-24 11:29 351 0 gusting 6 23.3
2014-Oct-24 11:19 360 0 gusting 6 22.8
2014-Oct-24 11:09 029 0 gusting 6 22.8
2014-Oct-24 10:59 360 2 gusting 6 22.8
2014-Oct-24 10:49 005 3 gusting 7 22.2
2014-Oct-24 10:39 350 2 gusting 6 22.2
2014-Oct-24 10:29 009 2 gusting 7 22.2
2014-Oct-24 10:19 065 2 gusting 6 22.2
2014-Oct-24 10:09 005 2 gusting 8 21.7
2014-Oct-24 09:59 017 4 gusting 8 21.7
2014-Oct-24 09:49 042 3 gusting 8 21.1
2014-Oct-24 09:39 005 1 gusting 5 21.1
2014-Oct-24 09:29 336 2 gusting 6 21.1
2014-Oct-24 09:19 347 1 gusting 4 20.6
2014-Oct-24 09:09 005 0 gusting 6 20.6
2014-Oct-24 08:59 355 20.0
2014-Oct-24 08:49 325 1 gusting 6 19.4
2014-Oct-24 08:39 011 1 gusting 6 19.4
2014-Oct-24 08:29 005 2 gusting 5 18.9
2014-Oct-24 08:19 315 1 gusting 5 18.3
2014-Oct-24 08:09 324 3 gusting 6 18.3
2014-Oct-24 07:59 355 2 gusting 6 17.8
2014-Oct-24 07:49 338 1 gusting 5 17.2
2014-Oct-24 07:39 015 0 gusting 6 17.2
2014-Oct-24 07:29 360 2 gusting 6 16.7
2014-Oct-24 07:19 351 2 gusting 6 16.7
2014-Oct-24 07:09 005 2 gusting 6 16.1
2014-Oct-24 06:59 360 2 gusting 5 16.7
2014-Oct-24 06:49 005 3 gusting 6 16.7
2014-Oct-24 06:39 010 1 gusting 6 16.1
2014-Oct-24 06:29 011 2 gusting 6 16.1
2014-Oct-24 06:19 005 2 gusting 7 15.6
2014-Oct-24 06:09 355 1 gusting 5 15.6
2014-Oct-24 05:59 350 1 gusting 6 15.6
2014-Oct-24 05:49 005 0 gusting 6 15.6
2014-Oct-24 05:39 344 0 gusting 4 15.6
2014-Oct-24 05:30 319 1 gusting 5 15.6
2014-Oct-24 05:19 338 0 gusting 4 15.6
2014-Oct-24 05:09 360 1 gusting 5 15.6
2014-Oct-24 04:59 310 1 gusting 6 16.1
2014-Oct-24 04:49 348 3 gusting 6 16.1
2014-Oct-24 04:39 355 2 gusting 6 16.1
2014-Oct-24 04:29 349 1 gusting 6 16.1
2014-Oct-24 04:19 005 2 gusting 6 16.1
2014-Oct-24 04:09 349 0 gusting 6 16.1
2014-Oct-24 03:59 355 2 gusting 6 16.1
2014-Oct-24 03:49 344 1 gusting 7 16.1
2014-Oct-24 03:39 005 1 gusting 6 16.1
2014-Oct-24 03:29 326 2 gusting 6 16.1
2014-Oct-24 03:19 355 2 gusting 6 16.1
2014-Oct-24 03:09 360 2 gusting 8 16.1
2014-Oct-24 02:59 339 3 gusting 6 16.1
2014-Oct-24 02:49 349 1 gusting 6 16.1
2014-Oct-24 02:39 355 1 gusting 6 16.1
2014-Oct-24 02:29 360 3 gusting 8 16.1
2014-Oct-24 02:19 336 3 gusting 7 16.1
2014-Oct-24 02:09 355 3 gusting 7 16.1
2014-Oct-24 01:59 360 2 gusting 6 16.1
2014-Oct-24 01:49 355 1 gusting 6 16.1
2014-Oct-24 01:39 327 2 gusting 6 16.1
2014-Oct-24 01:29 355 1 gusting 7 16.1
2014-Oct-24 01:19 299 3 gusting 6 16.1
2014-Oct-24 01:09 315 2 gusting 8 16.1
2014-Oct-24 00:59 345 3 gusting 8 16.1
2014-Oct-24 00:49 347 3 gusting 6 15.6
2014-Oct-24 00:39 323 4 gusting 10 15.6
2014-Oct-24 00:29 012 2 gusting 8 15.6
2014-Oct-24 00:19 355 3 gusting 8 15.6
2014-Oct-24 00:09 009 4 gusting 9 15.6
2014-Oct-23 23:59 005 3 gusting 8 15.6
2014-Oct-23 23:49 328 4 gusting 9 15.6
2014-Oct-23 23:39 338 4 gusting 7 15.6
2014-Oct-23 23:29 349 3 gusting 6 15.6
2014-Oct-23 23:19 327 3 gusting 6 15.6
2014-Oct-23 23:09 348 3 gusting 8 15.6
2014-Oct-23 22:59 346 4 gusting 6 15.6
2014-Oct-23 22:49 331 4 gusting 7 15.6
2014-Oct-23 22:39 317 3 gusting 8 16.1
2014-Oct-23 22:29 345 4 gusting 7 16.1
2014-Oct-23 22:19 336 3 gusting 7 16.1
2014-Oct-23 22:09 328 2 gusting 8 16.1
2014-Oct-23 21:59 338 3 gusting 8 16.1
2014-Oct-23 21:49 345 4 gusting 7 16.1
2014-Oct-23 21:39 341 2 gusting 11 16.7
2014-Oct-23 21:29 309 2 gusting 9 16.7
2014-Oct-23 21:19 350 4 gusting 11 16.7
2014-Oct-23 21:09 355 6 gusting 13 17.2
2014-Oct-23 20:49 355 6 gusting 13 17.2
2014-Oct-23 20:39 029 7 gusting 13 17.2
2014-Oct-23 20:29 355 4 gusting 10 17.2
2014-Oct-23 20:19 337 4 gusting 11 17.2
2014-Oct-23 20:09 340 4 gusting 9 17.2
2014-Oct-23 19:59 332 4 gusting 8 17.2
2014-Oct-23 19:49 344 5 gusting 9 17.2
2014-Oct-23 19:39 339 4 gusting 7 17.2
2014-Oct-23 19:29 360 4 gusting 7 17.2
2014-Oct-23 19:19 355 3 gusting 11 17.2
2014-Oct-23 19:09 005 3 gusting 6 17.2
2014-Oct-23 18:59 360 2 gusting 6 16.7
2014-Oct-23 18:49 355 2 gusting 7 17.2
2014-Oct-23 18:29 355 0 gusting 5 17.2
2014-Oct-23 18:19 360 0 gusting 4 17.2
2014-Oct-23 18:09 355 17.8